createdAt,value
2023-01-13T04:01:16.540Z,10.90
2023-01-13T04:04:02.050Z,10.40
2023-01-13T04:06:55.179Z,10.30
2023-01-13T04:09:47.904Z,10.30
2023-01-13T04:12:51.759Z,10.20
2023-01-13T04:15:27.442Z,10.20
2023-01-13T04:17:55.396Z,10.20
2023-01-13T04:20:22.359Z,10.20
2023-01-13T04:22:49.357Z,10.20
2023-01-13T04:25:16.376Z,10.20
2023-01-13T04:27:43.439Z,10.20
2023-01-13T04:30:11.327Z,10.10
2023-01-13T04:32:38.357Z,10.20
2023-01-13T04:35:05.744Z,10.20
2023-01-13T04:37:33.385Z,10.10
2023-01-13T04:40:00.256Z,10.10
2023-01-13T04:42:27.382Z,10.10
2023-01-13T04:44:54.471Z,10.10
2023-01-13T04:47:21.412Z,10.20
2023-01-13T04:49:48.363Z,10.20
2023-01-13T04:52:15.454Z,10.20
2023-01-13T04:54:42.398Z,10.20
2023-01-13T04:57:09.363Z,10.20
2023-01-13T04:59:36.324Z,10.30
2023-01-13T05:02:03.287Z,10.30
2023-01-13T05:04:30.375Z,10.30
2023-01-13T05:06:58.743Z,10.40
2023-01-13T05:09:25.777Z,10.40
2023-01-13T05:12:11.444Z,10.40
2023-01-13T05:14:56.856Z,10.40
2023-01-13T05:17:25.520Z,10.50
2023-01-13T05:19:52.563Z,10.50
2023-01-13T05:22:37.979Z,10.50
2023-01-13T05:25:24.397Z,10.50
2023-01-13T05:27:56.756Z,10.50
2023-01-13T05:30:30.547Z,10.50
2023-01-13T05:32:57.778Z,10.50
2023-01-13T05:35:25.376Z,10.60
2023-01-13T05:37:52.430Z,10.50
2023-01-13T05:40:38.170Z,10.60
2023-01-13T05:43:20.610Z,10.50
2023-01-13T05:45:57.343Z,10.60
2023-01-13T05:48:42.331Z,10.60
2023-01-13T05:51:11.973Z,10.50
2023-01-13T05:53:41.027Z,10.60
2023-01-13T05:56:09.556Z,10.50
2023-01-13T05:58:37.061Z,10.60
2023-01-13T06:01:07.925Z,10.70
2023-01-13T06:03:36.064Z,10.60
2023-01-13T06:06:04.268Z,10.60
2023-01-13T06:08:32.342Z,10.70
2023-01-13T06:10:59.809Z,10.60
2023-01-13T06:13:27.254Z,10.60
2023-01-13T06:15:58.546Z,10.60
2023-01-13T06:18:26.573Z,10.60
2023-01-13T06:20:53.795Z,10.70
2023-01-13T06:23:20.862Z,10.60
2023-01-13T06:26:08.383Z,10.60
2023-01-13T06:28:35.608Z,10.70
2023-01-13T06:31:07.018Z,10.60
2023-01-13T06:33:39.139Z,10.60
2023-01-13T06:36:15.300Z,10.70
2023-01-13T06:38:47.921Z,10.70
2023-01-13T06:41:15.585Z,10.70
2023-01-13T06:43:42.617Z,10.80
2023-01-13T06:46:09.548Z,10.80
2023-01-13T06:48:36.607Z,10.70
2023-01-13T06:51:04.816Z,10.70
2023-01-13T06:53:31.904Z,10.70
2023-01-13T06:55:58.958Z,10.70
2023-01-13T06:58:26.009Z,10.70
2023-01-13T07:00:53.719Z,10.70
2023-01-13T07:03:21.439Z,10.70
2023-01-13T07:05:55.821Z,10.70
2023-01-13T07:08:24.123Z,10.70
2023-01-13T07:10:51.529Z,10.70
2023-01-13T07:13:37.568Z,10.70
2023-01-13T07:16:07.407Z,10.70
2023-01-13T07:18:35.368Z,10.60
2023-01-13T07:21:09.128Z,10.70
2023-01-13T07:23:40.244Z,10.70
2023-01-13T07:26:09.636Z,10.70
2023-01-13T07:28:37.532Z,10.70
2023-01-13T07:31:05.833Z,10.70
2023-01-13T07:33:33.341Z,10.70
2023-01-13T07:36:05.325Z,10.60
2023-01-13T07:38:34.201Z,10.70
2023-01-13T07:41:21.980Z,10.60
2023-01-13T07:43:49.482Z,10.70
2023-01-13T07:46:16.875Z,10.70
2023-01-13T07:48:44.420Z,10.60
2023-01-13T07:51:12.979Z,10.70
2023-01-13T07:53:40.082Z,10.70
2023-01-13T07:56:08.407Z,10.80
2023-01-13T07:58:36.851Z,10.70
2023-01-13T08:01:14.341Z,10.70
2023-01-13T08:03:41.549Z,10.70
2023-01-13T08:06:10.358Z,10.70
2023-01-13T08:08:38.601Z,10.70
2023-01-13T08:11:08.209Z,10.70
2023-01-13T08:13:35.960Z,10.80
2023-01-13T08:16:09.304Z,10.80
2023-01-13T08:18:37.856Z,10.80
2023-01-13T08:21:14.911Z,10.80
2023-01-13T08:23:44.487Z,10.70
2023-01-13T08:26:18.027Z,10.80
2023-01-13T08:28:45.854Z,10.70
2023-01-13T08:31:16.532Z,10.50
2023-01-13T08:33:43.886Z,10.40
2023-01-13T08:36:12.753Z,10.30
2023-01-13T08:38:40.712Z,10.40
2023-01-13T08:41:14.120Z,10.30
2023-01-13T08:46:08.787Z,10.20
2023-01-13T08:48:35.959Z,10.10
2023-01-13T08:51:07.237Z,10.00
2023-01-13T08:53:34.313Z,9.80
2023-01-13T08:56:01.369Z,9.70
2023-01-13T08:58:28.519Z,9.60
2023-01-13T09:00:55.627Z,9.60
2023-01-13T09:03:22.879Z,9.60
2023-01-13T09:05:49.920Z,9.50
2023-01-13T09:08:16.946Z,9.40
2023-01-13T09:10:44.087Z,9.30
2023-01-13T09:13:14.101Z,9.10
2023-01-13T09:15:44.937Z,8.80
2023-01-13T09:18:12.743Z,8.60
2023-01-13T09:20:39.927Z,8.50
2023-01-13T09:23:10.010Z,8.30
2023-01-13T09:25:37.534Z,8.20
2023-01-13T09:28:08.628Z,8.20
2023-01-13T09:30:37.574Z,8.20
2023-01-13T09:33:23.002Z,8.20
2023-01-13T09:35:50.155Z,8.20
2023-01-13T09:38:17.115Z,8.20
2023-01-13T09:40:44.376Z,8.20
2023-01-13T09:43:39.859Z,8.30
2023-01-13T09:46:47.140Z,8.40
2023-01-13T09:49:20.902Z,8.40
2023-01-13T09:52:15.181Z,8.40
2023-01-13T09:54:52.004Z,8.50
2023-01-13T09:57:21.510Z,8.60
2023-01-13T09:59:48.954Z,8.60
2023-01-13T10:02:55.099Z,8.60
2023-01-13T10:05:41.397Z,8.60
2023-01-13T10:08:15.988Z,8.60
2023-01-13T10:15:56.983Z,8.80
2023-01-13T10:18:50.125Z,8.80
2023-01-13T10:21:58.510Z,8.90
2023-01-13T10:24:59.012Z,8.90
2023-01-13T10:27:38.877Z,8.90
2023-01-13T10:30:22.453Z,8.80
2023-01-13T10:33:01.567Z,8.80
2023-01-13T10:35:56.998Z,8.80
2023-01-13T10:38:34.467Z,8.80
2023-01-13T10:41:24.387Z,8.80
2023-01-13T10:44:04.248Z,8.80
2023-01-13T10:46:34.929Z,8.70
2023-01-13T10:49:39.903Z,8.70
2023-01-13T10:52:28.427Z,8.80
2023-01-13T10:54:56.715Z,8.80
2023-01-13T10:57:27.016Z,8.80
2023-01-13T10:59:55.255Z,9.00
2023-01-13T11:02:36.090Z,9.00
2023-01-13T11:05:24.900Z,9.10
2023-01-13T11:07:54.931Z,9.10
2023-01-13T11:10:28.233Z,9.10
2023-01-13T11:13:16.803Z,9.10
2023-01-13T11:16:14.527Z,9.00
2023-01-13T11:19:11.920Z,8.90
2023-01-13T11:21:54.807Z,8.90
2023-01-13T11:24:36.810Z,8.90
2023-01-13T11:27:12.647Z,8.80
2023-01-13T11:29:59.136Z,8.80
2023-01-13T11:32:31.401Z,8.70
2023-01-13T11:35:05.326Z,8.60
2023-01-13T11:37:37.768Z,8.50
2023-01-13T11:40:07.030Z,8.50
2023-01-13T11:43:01.581Z,8.40
2023-01-13T11:45:58.490Z,8.30
2023-01-13T11:48:31.950Z,8.30
2023-01-13T11:51:14.113Z,8.40
2023-01-13T11:54:16.513Z,8.40
2023-01-13T11:57:02.076Z,8.40
2023-01-13T11:59:36.947Z,8.40
2023-01-13T12:02:47.557Z,8.40
2023-01-13T12:05:43.002Z,8.40
2023-01-13T12:08:16.799Z,8.50
2023-01-13T12:10:49.660Z,8.50
2023-01-13T12:13:46.050Z,8.50
2023-01-13T12:16:30.346Z,8.60
2023-01-13T12:19:11.028Z,8.70
2023-01-13T12:22:12.353Z,9.00
2023-01-13T12:24:55.132Z,9.30
2023-01-13T12:27:47.400Z,9.50
2023-01-13T12:30:31.991Z,9.50
2023-01-13T12:33:35.397Z,9.40
2023-01-13T12:36:16.044Z,9.20
2023-01-13T12:38:55.008Z,9.10
2023-01-13T12:42:16.336Z,9.00
2023-01-13T12:45:11.349Z,9.00
2023-01-13T12:47:44.256Z,8.80
2023-01-13T12:50:26.041Z,8.90
2023-01-13T12:52:57.350Z,8.90
2023-01-13T12:55:34.560Z,9.00
2023-01-13T12:58:10.683Z,8.90
2023-01-13T13:00:40.633Z,8.80
2023-01-13T13:03:18.597Z,8.90
2023-01-13T13:06:00.313Z,9.00
2023-01-13T13:08:48.845Z,9.00
2023-01-13T13:11:41.276Z,9.00
2023-01-13T13:14:13.961Z,8.80
2023-01-13T13:16:52.325Z,8.70
2023-01-13T13:19:20.032Z,8.60
2023-01-13T13:22:11.941Z,8.60
2023-01-13T13:24:40.959Z,8.50
2023-01-13T13:27:38.115Z,8.40
2023-01-13T13:30:18.403Z,8.40
2023-01-13T13:33:21.600Z,8.60
2023-01-13T13:36:26.720Z,8.80
2023-01-13T13:39:34.651Z,9.30
2023-01-13T13:42:31.064Z,9.80
2023-01-13T13:45:19.336Z,10.00
2023-01-13T13:47:46.424Z,9.70
2023-01-13T13:50:20.536Z,9.90
2023-01-13T13:52:59.193Z,9.70
2023-01-13T13:55:28.805Z,9.80
2023-01-13T13:57:57.824Z,9.80
2023-01-13T14:00:33.996Z,9.70
2023-01-13T14:03:38.992Z,9.50
2023-01-13T14:06:16.523Z,9.40
2023-01-13T14:08:50.421Z,9.20
2023-01-13T14:11:27.967Z,9.10
2023-01-13T14:14:17.160Z,9.00
2023-01-13T14:16:44.128Z,9.00
2023-01-13T14:19:40.259Z,9.00
2023-01-13T14:22:16.290Z,9.00
2023-01-13T14:24:49.330Z,8.90
2023-01-13T14:27:18.913Z,8.80
2023-01-13T14:29:46.149Z,8.70
2023-01-13T14:32:21.285Z,8.50
2023-01-13T14:34:48.518Z,7.70
2023-01-13T14:37:25.520Z,8.30
2023-01-13T14:39:52.448Z,8.30
2023-01-13T14:42:20.760Z,8.40
2023-01-13T14:44:50.700Z,8.60
2023-01-13T14:47:26.821Z,8.80
2023-01-13T14:50:07.539Z,8.90
2023-01-13T14:52:54.671Z,9.00
2023-01-13T14:55:30.567Z,8.90
2023-01-13T14:58:20.186Z,8.80
2023-01-13T15:00:47.558Z,8.90
2023-01-13T15:03:17.457Z,8.80
2023-01-13T15:05:52.595Z,8.70
2023-01-13T15:08:27.376Z,8.60
2023-01-13T15:11:14.644Z,8.50
2023-01-13T15:13:56.819Z,8.40
2023-01-13T15:16:26.330Z,8.30
2023-01-13T15:18:55.446Z,8.20
2023-01-13T15:21:23.311Z,8.20
2023-01-13T15:23:50.391Z,8.10
2023-01-13T15:26:23.679Z,7.50
2023-01-13T15:28:52.353Z,8.10
2023-01-13T15:31:20.315Z,8.10
2023-01-13T15:33:47.701Z,8.00
2023-01-13T15:36:29.855Z,7.90
2023-01-13T15:38:58.355Z,7.70
2023-01-13T15:41:44.592Z,7.60
2023-01-13T15:44:32.763Z,7.50
2023-01-13T15:47:03.713Z,7.40
2023-01-13T15:49:39.021Z,7.20
2023-01-13T15:52:21.446Z,7.10
2023-01-13T15:54:52.405Z,7.10
2023-01-13T15:57:27.288Z,7.00
2023-01-13T16:00:02.023Z,6.90
2023-01-13T16:02:33.851Z,6.90
2023-01-13T16:05:00.883Z,6.90
2023-01-13T16:07:28.353Z,6.80
2023-01-13T16:09:55.383Z,7.00
2023-01-13T16:12:22.387Z,6.70
2023-01-13T16:14:49.268Z,6.60
2023-01-13T16:17:22.540Z,6.60
2023-01-13T16:19:49.919Z,6.60
2023-01-13T16:22:17.733Z,6.50
2023-01-13T16:24:44.720Z,6.50
2023-01-13T16:27:17.790Z,6.50
2023-01-13T16:29:45.822Z,6.50
2023-01-13T16:32:12.847Z,6.50
2023-01-13T16:34:40.358Z,6.60
2023-01-13T16:37:19.890Z,6.80
2023-01-13T16:39:47.658Z,6.80
2023-01-13T16:42:15.065Z,6.80
2023-01-13T16:44:42.146Z,6.80
2023-01-13T16:47:17.449Z,6.80
2023-01-13T16:49:45.591Z,6.80
2023-01-13T16:52:12.666Z,6.70
2023-01-13T16:54:39.671Z,6.70
2023-01-13T16:57:07.833Z,6.70
2023-01-13T16:59:34.814Z,6.60
2023-01-13T17:02:02.209Z,6.60
2023-01-13T17:04:29.344Z,6.60
2023-01-13T17:07:06.361Z,6.50
2023-01-13T17:09:33.366Z,6.50
2023-01-13T17:12:00.954Z,6.50
2023-01-13T17:14:28.005Z,6.50
2023-01-13T17:16:58.126Z,6.50
2023-01-13T17:19:25.803Z,6.40
2023-01-13T17:21:53.049Z,6.40
2023-01-13T17:24:20.582Z,6.40
2023-01-13T17:26:50.413Z,6.40
2023-01-13T17:29:22.058Z,6.50
2023-01-13T17:31:50.720Z,6.60
2023-01-13T17:34:18.283Z,6.50
2023-01-13T17:36:45.427Z,6.60
2023-01-13T17:39:17.724Z,6.60
2023-01-13T17:41:45.807Z,6.50
2023-01-13T17:44:18.838Z,6.50
2023-01-13T17:46:46.557Z,6.40
2023-01-13T17:49:16.615Z,6.20
2023-01-13T17:51:44.862Z,6.30
2023-01-13T17:54:12.435Z,6.50
2023-01-13T17:56:41.162Z,6.60
2023-01-13T17:59:12.447Z,6.70
2023-01-13T18:01:40.207Z,6.60
2023-01-13T18:04:07.512Z,6.80
2023-01-13T18:06:34.791Z,6.80
2023-01-13T18:09:01.859Z,6.90
2023-01-13T18:11:28.858Z,7.00
2023-01-13T18:14:00.247Z,7.00
2023-01-13T18:16:29.706Z,7.00
2023-01-13T18:19:18.646Z,7.10
2023-01-13T18:22:06.080Z,7.10
2023-01-13T18:24:51.792Z,7.20
2023-01-13T18:27:27.283Z,7.20
2023-01-13T18:29:56.968Z,7.20
2023-01-13T18:32:30.448Z,7.10
2023-01-13T18:35:05.668Z,7.20
2023-01-13T18:37:36.064Z,7.20
2023-01-13T18:40:05.061Z,7.20
2023-01-13T18:42:50.751Z,7.20
2023-01-13T18:45:24.769Z,7.20
2023-01-13T18:50:21.224Z,7.20
2023-01-13T18:52:48.301Z,7.30
2023-01-13T18:55:15.604Z,7.40
2023-01-13T18:57:42.640Z,7.30
2023-01-13T19:00:17.200Z,7.20
2023-01-13T19:02:47.048Z,7.40
2023-01-13T19:05:14.481Z,7.40
2023-01-13T19:07:43.475Z,7.50
2023-01-13T19:10:12.972Z,7.40
2023-01-13T19:12:39.994Z,7.50
2023-01-13T19:15:07.859Z,7.50
2023-01-13T19:17:35.871Z,7.50
2023-01-13T19:20:05.151Z,7.50
2023-01-13T19:22:34.669Z,7.50
2023-01-13T19:25:03.037Z,7.40
2023-01-13T19:27:31.008Z,7.60
2023-01-13T19:30:00.258Z,7.50
2023-01-13T19:32:28.010Z,7.60
2023-01-13T19:34:59.084Z,7.60
2023-01-13T19:37:30.182Z,7.50
2023-01-13T19:40:00.584Z,7.50
2023-01-13T19:45:26.506Z,7.30
2023-01-13T19:47:54.724Z,7.50
2023-01-13T19:50:21.801Z,7.40
2023-01-13T19:52:48.877Z,7.40
2023-01-13T19:55:15.839Z,7.40
2023-01-13T19:57:43.473Z,7.40
2023-01-13T20:00:12.295Z,7.40
2023-01-13T20:02:47.975Z,7.30
2023-01-13T20:05:20.877Z,7.20
2023-01-13T20:07:49.971Z,7.10
2023-01-13T20:10:19.597Z,7.20
2023-01-13T20:12:46.576Z,7.10
2023-01-13T20:15:13.957Z,7.10
2023-01-13T20:17:41.560Z,7.00
2023-01-13T20:20:10.758Z,6.90
2023-01-13T20:22:41.397Z,7.00
2023-01-13T20:25:09.433Z,6.90
2023-01-13T20:27:37.488Z,7.00
2023-01-13T20:30:09.377Z,7.00
2023-01-13T20:32:37.238Z,7.00
2023-01-13T20:35:04.985Z,7.00
2023-01-13T20:37:31.960Z,7.00
2023-01-13T20:40:01.564Z,7.10
2023-01-13T20:42:39.649Z,7.10
2023-01-13T20:45:07.304Z,7.10
2023-01-13T20:47:34.421Z,7.10
2023-01-13T20:50:01.373Z,7.10
2023-01-13T20:52:28.596Z,7.10
2023-01-13T20:54:55.533Z,7.10
2023-01-13T20:59:50.136Z,7.00
2023-01-13T21:02:17.944Z,7.00
2023-01-13T21:04:44.876Z,6.90
2023-01-13T21:07:11.885Z,6.90
2023-01-13T21:09:38.827Z,6.90
2023-01-13T21:15:10.867Z,6.90
2023-01-13T21:17:56.143Z,6.90
2023-01-13T21:22:50.652Z,6.70
2023-01-13T21:25:19.473Z,6.70
2023-01-13T21:27:46.734Z,6.70
2023-01-13T21:32:44.407Z,6.70
2023-01-13T21:35:12.952Z,6.80
2023-01-13T21:37:42.295Z,6.80
2023-01-13T21:40:12.659Z,6.70
2023-01-13T21:42:58.256Z,6.70
2023-01-13T21:48:11.446Z,6.60
2023-01-13T21:50:39.137Z,6.60
2023-01-13T21:53:07.822Z,6.60
2023-01-13T21:55:36.676Z,6.60
2023-01-13T21:58:14.530Z,6.70
2023-01-13T22:00:43.809Z,6.70
2023-01-13T22:03:12.946Z,6.60
2023-01-13T22:05:40.213Z,6.50
2023-01-13T22:08:07.957Z,6.50
2023-01-13T22:10:35.742Z,6.60
2023-01-13T22:13:23.306Z,6.60
2023-01-13T22:15:50.298Z,6.60
2023-01-13T22:18:20.417Z,6.50
2023-01-13T22:20:48.692Z,6.50
2023-01-13T22:23:15.685Z,6.60
2023-01-13T22:25:42.640Z,6.60
2023-01-13T22:28:13.619Z,6.70
2023-01-13T22:30:40.865Z,6.60
2023-01-13T22:33:07.823Z,6.60
2023-01-13T22:38:02.120Z,6.60
2023-01-13T22:40:29.106Z,6.60
2023-01-13T22:45:23.381Z,6.60
2023-01-13T22:47:50.346Z,6.60
2023-01-13T22:50:20.870Z,6.60
2023-01-13T22:52:47.950Z,6.70
2023-01-13T22:55:14.941Z,6.70
2023-01-13T23:00:19.224Z,6.60
2023-01-13T23:02:46.903Z,6.60
2023-01-13T23:05:14.030Z,6.50
2023-01-13T23:10:09.325Z,6.50
2023-01-13T23:12:36.391Z,6.50
2023-01-13T23:15:04.423Z,6.50
2023-01-13T23:17:31.668Z,6.50
2023-01-13T23:19:58.698Z,6.40
2023-01-13T23:22:25.713Z,6.30
2023-01-13T23:24:52.656Z,6.20
2023-01-13T23:27:19.625Z,6.10
2023-01-13T23:29:46.651Z,6.10
2023-01-13T23:32:13.602Z,6.10
2023-01-13T23:34:40.530Z,6.00
2023-01-13T23:37:07.466Z,6.50
2023-01-13T23:39:34.402Z,5.90
2023-01-13T23:44:29.429Z,6.00
2023-01-13T23:49:24.074Z,6.00
2023-01-13T23:51:52.321Z,6.10
2023-01-13T23:54:20.010Z,6.10
2023-01-13T23:56:49.471Z,6.10
2023-01-13T23:59:16.524Z,6.10
